createdAt,value
2023-06-29T00:03:55.279Z,5
2023-06-29T00:14:01.313Z,6
2023-06-29T00:24:08.091Z,10
2023-06-29T00:34:14.519Z,7
2023-06-29T00:44:21.547Z,8
2023-06-29T00:54:28.352Z,6
2023-06-29T01:04:34.831Z,6
2023-06-29T01:14:40.028Z,7
2023-06-29T01:24:47.218Z,6
2023-06-29T01:34:51.565Z,7
2023-06-29T01:44:57.215Z,5
2023-06-29T01:55:01.933Z,7
2023-06-29T02:05:08.536Z,7
2023-06-29T02:15:15.381Z,7
2023-06-29T02:25:23.076Z,5
2023-06-29T02:35:29.874Z,7
2023-06-29T02:45:36.639Z,7
2023-06-29T02:55:43.157Z,5
2023-06-29T03:05:50.473Z,6
2023-06-29T03:15:56.334Z,7
2023-06-29T03:26:03.672Z,6
2023-06-29T03:36:09.256Z,6
2023-06-29T03:46:16.805Z,6
2023-06-29T03:56:23.151Z,6
2023-06-29T04:06:28.298Z,6
2023-06-29T04:16:32.927Z,6
2023-06-29T04:26:38.524Z,6
2023-06-29T04:36:45.114Z,8
2023-06-29T04:46:52.883Z,8
2023-06-29T04:56:59.871Z,8
2023-06-29T05:07:06.666Z,8
2023-06-29T05:17:12.746Z,6
2023-06-29T05:27:19.678Z,7
2023-06-29T05:37:26.829Z,7
2023-06-29T05:47:33.829Z,6
2023-06-29T05:57:38.770Z,8
2023-06-29T06:07:45.186Z,5
2023-06-29T06:17:51.131Z,5
2023-06-29T06:27:56.827Z,6
2023-06-29T06:38:03.002Z,7
2023-06-29T06:48:11.989Z,7
2023-06-29T06:58:16.600Z,9
2023-06-29T07:08:23.227Z,5
2023-06-29T07:18:29.565Z,5
2023-06-29T07:30:11.644Z,5
2023-06-29T07:40:18.868Z,6
2023-06-29T08:17:44.931Z,8
2023-06-29T08:27:50.326Z,5
2023-06-29T08:37:58.249Z,5
2023-06-29T08:48:06.920Z,8
2023-06-29T08:58:10.566Z,5
2023-06-29T09:08:17.501Z,7
2023-06-29T09:18:23.797Z,6
2023-06-29T09:28:31.749Z,8
2023-06-29T09:38:39.182Z,5
2023-06-29T09:59:02.560Z,7
2023-06-29T10:09:07.664Z,9
2023-06-29T10:19:14.543Z,5
2023-06-29T10:29:23.721Z,6
2023-06-29T10:39:28.478Z,7
2023-06-29T10:49:35.962Z,7
2023-06-29T10:59:41.201Z,8
2023-06-29T11:09:48.014Z,6
2023-06-29T11:19:57.133Z,6
2023-06-29T11:30:02.026Z,9
2023-06-29T11:40:08.828Z,10
2023-06-29T11:50:15.761Z,18
2023-06-29T12:00:22.092Z,9
2023-06-29T12:10:28.191Z,9
2023-06-29T12:20:56.291Z,13
2023-06-29T12:30:51.369Z,11
2023-06-29T12:40:57.890Z,35
2023-06-29T12:51:04.691Z,13
2023-06-29T13:01:12.799Z,8
2023-06-29T13:11:20.908Z,11
2023-06-29T13:21:25.560Z,11
2023-06-29T13:31:34.199Z,10
2023-06-29T13:41:40.550Z,9
2023-06-29T13:51:48.555Z,9
2023-06-29T14:01:54.582Z,12
2023-06-29T14:12:00.693Z,10
2023-06-29T14:22:07.212Z,10
2023-06-29T14:32:14.200Z,10
2023-06-29T14:42:19.794Z,9
2023-06-29T14:52:26.315Z,10
2023-06-29T15:02:34.213Z,9
2023-06-29T15:12:39.432Z,8
2023-06-29T15:22:45.415Z,7
2023-06-29T15:32:51.583Z,7
2023-06-29T15:42:59.175Z,7
2023-06-29T15:53:06.406Z,7
2023-06-29T16:03:13.346Z,6
2023-06-29T16:13:19.059Z,6
2023-06-29T16:23:23.928Z,5
2023-06-29T16:33:31.212Z,8
2023-06-29T16:43:37.828Z,9
2023-06-29T16:53:43.802Z,7
2023-06-29T17:03:50.219Z,11
2023-06-29T17:13:56.444Z,11
2023-06-29T17:22:01.209Z,10
2023-06-29T17:32:09.058Z,7
2023-06-29T17:42:16.551Z,11
2023-06-29T17:52:23.533Z,15
2023-06-29T18:02:31.300Z,9
2023-06-29T18:12:38.899Z,7
2023-06-29T18:22:45.025Z,10
2023-06-29T18:32:52.083Z,8
2023-06-29T18:42:57.825Z,8
2023-06-29T18:53:03.770Z,13
2023-06-29T19:03:11.435Z,7
2023-06-29T19:13:16.964Z,7
2023-06-29T19:33:31.509Z,10
2023-06-29T19:43:39.901Z,8
2023-06-29T20:34:09.879Z,9
2023-06-29T20:54:22.350Z,8
2023-06-29T21:04:29.365Z,9
2023-06-29T21:14:33.360Z,8
2023-06-29T21:24:40.773Z,14
2023-06-29T22:35:29.976Z,20
2023-06-29T22:45:38.242Z,22
2023-06-29T22:55:42.979Z,23
2023-06-29T23:26:01.974Z,24
2023-06-29T23:36:08.985Z,23
2023-06-29T23:46:15.380Z,22
2023-06-29T23:56:22.326Z,24
